DW4077 Weather Reports


Display with metric or nautical units.
time (UTC)temp
F
wind
direction
speed
MPH
gust
MPH
rain 1hr
in
rain 24hr
in
rain mn
in
humidity
%
barometer
mb
20221004194005 52 274 11.0 14.0 0.00 0.01 0.01 76 1009.4
20221004193006 52 280 12.0 18.0 0.00 0.01 0.01 75 1009.4
20221004192006 52 275 9.0 13.0 0.00 0.01 0.01 76 1009.4
20221004191005 52 274 10.0 14.0 0.00 0.01 0.01 76 1009.9
20221004190005 51 282 9.0 13.0 0.00 0.01 0.01 76 1010.0
20221004185005 51 272 9.0 13.0 0.00 0.01 0.01 76 1010.2
20221004184006 51 278 9.0 11.0 0.00 0.01 0.01 78 1010.6
20221004182005 50 263 8.0 11.0 0.00 0.01 0.01 79 1011.7
20221004181005 50 275 9.0 13.0 0.00 0.01 0.01 79 1012.0
20221004180006 50 274 8.0 11.0 0.00 0.01 0.01 78 1012.3
20221004174007 49 276 9.0 11.0 0.00 0.01 0.01 79 1012.4
20221004173007 49 277 10.0 16.0 0.00 0.01 0.01 79 1012.3
20221004161005 49 270 6.0 11.0 0.01 0.01 0.01 85 1012.5
20221004160005 49 275 7.0 10.0 0.01 0.01 0.01 85 1012.7
20221004154005 49 282 11.0 17.0 0.01 0.01 0.01 87 1012.8
20221004153006 49 278 13.0 21.0 0.01 0.01 0.01 87 1012.9
20221004152006 49 275 21.0 30.0 0.01 0.01 0.01 85 1013.1
20221004151006 51 271 13.0 18.0 0.00 0.00 0.00 75 1013.0
20221004150005 52 270 12.0 16.0 0.00 0.00 0.00 71 1013.0
20221004145006 52 268 11.0 16.0 0.00 0.00 0.00 71 1013.0
20221004144006 52 270 11.0 19.0 0.00 0.00 0.00 71 1013.1
20221004143006 52 273 14.0 19.0 0.00 0.00 0.00 70 1013.3
20221004141005 52 273 13.0 17.0 0.00 0.00 0.00 74 1013.7
20221004135005 51 265 9.0 11.0 0.00 0.00 0.00 77 1013.9
20221004134006 51 285 8.0 14.0 0.00 0.00 0.00 79 1014.0
20221004131007 53 269 22.0 27.0 0.00 0.00 0.00 74 1014.2
20221004130005 53 283 12.0 21.0 0.00 0.00 0.00 74 1014.2
20221004124006 53 273 11.0 14.0 0.00 0.00 0.00 75 1014.3
20221004123007 53 278 11.0 16.0 0.00 0.00 0.00 75 1014.4
20221004121005 53 276 12.0 16.0 0.00 0.00 0.00 76 1014.5
20221004120005 53 271 12.0 16.0 0.00 0.00 0.00 77 1014.5
20221004115006 53 271 12.0 17.0 0.00 0.00 0.00 77 1014.4
20221004114005 53 271 11.0 16.0 0.00 0.00 0.00 77 1014.4
20221004113006 53 277 11.0 14.0 0.00 0.00 0.00 78 1014.7
20221004112006 53 269 11.0 16.0 0.00 0.00 0.00 78 1014.6
20221004111005 53 276 14.0 21.0 0.00 0.00 0.00 78 1014.7
20221004105007 53 287 11.0 16.0 0.00 0.00 0.00 80 1014.4
20221004104005 54 268 8.0 16.0 0.00 0.00 0.00 80 1014.5
20221004103006 54 271 9.0 14.0 0.00 0.00 0.00 80 1014.5
20221004102008 54 270 9.0 11.0 0.00 0.00 0.00 81 1014.4
20221004101006 54 278 7.0 10.0 0.00 0.00 0.00 81 1014.6
20221004100007 54 274 9.0 11.0 0.00 0.00 0.00 81 1014.7
20221004095006 54 278 7.0 10.0 0.00 0.00 0.00 82 1014.4
20221004094007 54 266 7.0 11.0 0.00 0.00 0.00 82 1014.6
20221004092006 53 273 8.0 11.0 0.00 0.00 0.00 83 1014.9
20221004091006 53 268 8.0 10.0 0.00 0.00 0.00 83 1014.8
20221004090005 53 274 9.0 11.0 0.00 0.00 0.00 83 1014.9
20221004085011 53 274 9.0 11.0 0.00 0.00 0.00 83 1014.9
20221004084006 53 267 8.0 11.0 0.00 0.00 0.00 84 1014.8
20221004082007 53 276 9.0 10.0 0.00 0.00 0.00 85 1014.9
20221004081006 53 279 9.0 11.0 0.00 0.00 0.00 84 1014.8
20221004080006 53 280 10.0 13.0 0.00 0.00 0.00 84 1014.7
20221004075006 54 270 13.0 17.0 0.00 0.00 0.00 83 1014.7
20221004074006 54 269 13.0 16.0 0.00 0.00 0.00 84 1014.6
20221004071007 54 266 15.0 18.0 0.00 0.00 0.00 84 1014.5
20221004070006 54 270 15.0 19.0 0.00 0.00 0.00 84 1014.5
20221004065006 54 254 19.0 24.0 0.00 0.01 0.00 83 1014.4
20221004064006 54 259 19.0 22.0 0.00 0.01 0.00 83 1014.5
20221004063006 54 257 19.0 24.0 0.00 0.01 0.00 82 1014.5
20221004062006 55 261 18.0 22.0 0.00 0.01 0.00 80 1014.7
20221004061006 55 265 19.0 22.0 0.00 0.01 0.00 77 1014.9
20221004060005 55 267 17.0 19.0 0.00 0.02 0.00 80 1015.2
20221004055005 56 257 21.0 27.0 0.00 0.02 0.00 78 1015.4
20221004054005 56 265 20.0 25.0 0.00 0.02 0.00 78 1015.4
20221004053006 57 259 20.0 24.0 0.00 0.02 0.00 76 1015.5
20221004052006 58 266 18.0 24.0 0.00 0.02 0.00 76 1015.4
20221004051005 57 257 20.0 27.0 0.00 0.02 0.00 75 1015.5
20221004044006 58 266 21.0 24.0 0.00 0.02 0.00 72 1015.4
20221004030006 62 230 10.0 17.0 0.00 0.02 0.00 59 1013.3
20221004025005 62 216 7.0 13.0 0.00 0.02 0.00 58 1013.3
20221004023005 60 245 8.0 13.0 0.00 0.02 0.00 61 1013.5
20221004022007 61 255 8.0 11.0 0.00 0.02 0.00 66 1013.7
20221004021006 61 246 8.0 10.0 0.00 0.02 0.00 65 1013.7
20221004015005 61 250 8.0 13.0 0.00 0.02 0.00 66 1013.8
20221004014005 60 252 10.0 14.0 0.00 0.02 0.00 62 1013.9
20221004013006 61 249 7.0 10.0 0.00 0.02 0.00 64 1013.8
20221004012006 60 262 10.0 14.0 0.00 0.02 0.00 64 1014.1
20221004010006 60 243 7.0 13.0 0.00 0.02 0.00 62 1014.1
20221004005005 59 235 7.0 10.0 0.00 0.02 0.00 59 1014.2
20221004004007 60 209 6.0 8.0 0.00 0.02 0.00 62 1014.4
20221004003007 60 208 5.0 7.0 0.00 0.02 0.00 61 1014.5
20221004002007 60 204 7.0 13.0 0.00 0.02 0.00 62 1014.5
20221004001006 60 197 7.0 11.0 0.00 0.02 0.00 63 1014.5
20221004000005 61 199 6.0 11.0 0.00 0.02 0.00 63 1014.5
20221003235005 59 189 8.0 10.0 0.00 0.02 0.00 59 1014.6
20221003234008 60 226 6.0 10.0 0.00 0.02 0.00 59 1014.6
20221003233007 60 290 5.0 8.0 0.00 0.02 0.00 53 1014.6
20221003232007 60 265 8.0 11.0 0.00 0.02 0.00 53 1014.7
20221003231007 60 264 6.0 10.0 0.00 0.02 0.00 54 1014.7
20221003230006 60 260 4.0 7.0 0.00 0.02 0.00 59 1014.9
20221003225006 60 6 4.0 5.0 0.00 0.02 0.00 52 1015.0
20221003224006 59 254 4.0 5.0 0.00 0.02 0.00 54 1015.0
20221003223008 58 298 4.0 5.0 0.00 0.02 0.00 53 1015.2
20221003222007 58 304 5.0 5.0 0.00 0.02 0.00 55 1015.2
20221003221005 59 331 5.0 8.0 0.00 0.02 0.00 55 1015.5
20221003215008 58 45 6.0 10.0 0.00 0.02 0.00 58 1015.5
20221003214007 56 55 8.0 10.0 0.00 0.04 0.00 58 1015.5
20221003213006 56 67 6.0 8.0 0.00 0.04 0.00 56 1015.6
20221003212006 55 61 6.0 8.0 0.00 0.04 0.00 58 1015.3
20221003211007 54 75 9.0 11.0 0.00 0.04 0.00 58 1015.3
20221003210006 55 71 8.0 10.0 0.00 0.04 0.00 64 1015.2
20221003205008 54 64 7.0 10.0 0.00 0.04 0.00 68 1015.8
20221003204008 53 57 5.0 8.0 0.00 0.04 0.00 69 1016.0
20221003203007 51 74 6.0 8.0 0.00 0.04 0.00 70 1016.0
20221003202007 51 50 3.0 5.0 0.00 0.05 0.00 72 1016.0
20221003201007 51 50 3.0 5.0 0.00 0.06 0.00 73 1015.8